Time;durP1;ratioP1;P1;durP2;ratioP2;P2;SDS_P1;SDS_P2;PMS_P1;PMS_P2;Temp;Humidity;BMP_temperature;BMP_pressure;BME280_temperature;BME280_humidity;BME280_pressure;Samples;Min_cycle;Max_cycle;Signal;HPM_P1;HPM_P2
2021/09/04 00:01:41;;;;;;;4.53;3.25;;;;;;;21.45;68.53;101197.75;4970545;28;102561;-51
2021/09/04 00:04:08;;;;;;;5.35;3.83;;;;;;;21.45;68.38;101198.53;4966350;28;102447;-52
2021/09/04 00:06:35;;;;;;;5.30;3.67;;;;;;;21.45;68.32;101197.75;4963167;28;104300;-51
2021/09/04 00:09:02;;;;;;;5.82;3.38;;;;;;;21.44;68.58;101196.13;4956132;28;102385;-51
2021/09/04 00:11:31;;;;;;;7.95;3.80;;;;;;;21.43;68.73;101197.28;4969527;28;102475;-51
2021/09/04 00:13:59;;;;;;;6.78;4.30;;;;;;;21.43;68.61;101194.50;4963131;28;102423;-51
2021/09/04 00:16:25;;;;;;;5.13;3.15;;;;;;;21.44;68.70;101198.91;4968945;28;103939;-51
2021/09/04 00:18:54;;;;;;;7.00;4.00;;;;;;;21.43;68.59;101194.50;4961077;28;102772;-51
2021/09/04 00:21:20;;;;;;;4.97;3.67;;;;;;;21.43;68.53;101205.59;4969905;28;102653;-51
2021/09/04 00:23:48;;;;;;;6.43;3.95;;;;;;;21.43;68.48;101200.84;4967459;28;102886;-52
2021/09/04 00:26:14;;;;;;;5.82;3.55;;;;;;;21.43;68.47;101195.31;4968502;28;103921;-51
2021/09/04 00:28:43;;;;;;;5.93;3.65;;;;;;;21.43;68.65;101188.97;4969752;28;102075;-52
2021/09/04 00:31:10;;;;;;;5.43;3.45;;;;;;;21.43;68.45;101194.50;4971302;28;102671;-51
2021/09/04 00:33:36;;;;;;;5.28;3.53;;;;;;;21.43;68.51;101195.31;4972602;28;102574;-51
2021/09/04 00:36:03;;;;;;;5.57;3.80;;;;;;;21.42;68.48;101193.69;4974336;28;103077;-51
2021/09/04 00:38:30;;;;;;;3.75;3.33;;;;;;;21.42;68.53;101188.16;4975036;28;102225;-51
2021/09/04 00:40:58;;;;;;;5.45;3.55;;;;;;;21.42;68.58;101190.94;4971699;28;102172;-51
2021/09/04 00:43:24;;;;;;;6.78;3.60;;;;;;;21.42;68.51;101182.63;4971440;28;102595;-51
2021/09/04 00:45:52;;;;;;;6.60;3.80;;;;;;;21.42;68.49;101187.31;4975878;28;105260;-51
2021/09/04 00:48:18;;;;;;;7.18;4.18;;;;;;;21.42;68.58;101181.78;4970443;28;102399;-51
2021/09/04 00:50:46;;;;;;;4.88;3.63;;;;;;;21.41;68.60;101175.44;4962493;28;102469;-51
2021/09/04 00:53:14;;;;;;;7.95;4.10;;;;;;;21.42;68.71;101176.25;4971215;28;102517;-52
2021/09/04 00:55:40;;;;;;;5.13;3.57;;;;;;;21.41;68.56;101169.91;4962383;28;103829;-51
2021/09/04 00:58:07;;;;;;;4.35;3.63;;;;;;;21.42;68.62;101167.94;4955963;28;102792;-51
2021/09/04 01:00:35;;;;;;;5.35;3.78;;;;;;;21.41;68.49;101166.34;4962297;28;102236;-51
2021/09/04 01:03:03;;;;;;;6.47;4.18;;;;;;;21.41;68.51;101163.56;4971241;28;102624;-51
2021/09/04 01:05:29;;;;;;;6.30;4.07;;;;;;;21.41;68.61;101166.34;4967174;28;103759;-51
2021/09/04 01:07:56;;;;;;;5.68;3.97;;;;;;;21.41;68.67;101160.78;4965611;28;102328;-51
2021/09/04 01:10:23;;;;;;;5.10;3.72;;;;;;;21.41;68.68;101169.09;4962306;28;102139;-51
2021/09/04 01:12:50;;;;;;;5.82;3.97;;;;;;;21.41;68.59;101158.03;4970993;28;102206;-51
2021/09/04 01:15:20;;;;;;;5.13;3.50;;;;;;;21.40;68.51;101153.63;4969251;28;103857;-51
2021/09/04 01:17:47;;;;;;;6.07;4.30;;;;;;;21.40;68.66;101148.09;4969290;28;102739;-51
2021/09/04 01:20:16;;;;;;;6.00;4.00;;;;;;;21.40;68.47;101150.88;4981397;28;102283;-51
2021/09/04 01:22:43;;;;;;;5.82;3.65;;;;;;;21.41;68.50;101149.72;4973855;28;102718;-51
2021/09/04 01:25:10;;;;;;;6.90;4.18;;;;;;;21.39;68.53;101154.78;4972025;28;103660;-51
2021/09/04 01:27:39;;;;;;;4.75;3.50;;;;;;;21.40;68.75;101153.63;4970037;28;102351;-51
2021/09/04 01:30:07;;;;;;;5.78;4.07;;;;;;;21.40;68.74;101156.41;4961795;28;102647;-51
2021/09/04 01:32:34;;;;;;;5.70;3.65;;;;;;;21.39;68.60;101157.56;4966818;28;104067;-51
2021/09/04 01:35:10;;;;;;;5.97;4.22;;;;;;;21.40;68.72;101156.41;4968704;28;104042;-51
2021/09/04 01:37:37;;;;;;;4.63;3.60;;;;;;;21.39;68.75;101155.59;4971095;28;102237;-51
2021/09/04 01:40:08;;;;;;;6.55;3.90;;;;;;;21.38;68.72;101142.88;4970486;28;102010;-51
2021/09/04 01:42:38;;;;;;;5.95;4.00;;;;;;;21.39;68.70;101143.72;4971962;28;102533;-51
2021/09/04 01:45:05;;;;;;;5.13;3.72;;;;;;;21.39;68.62;101138.19;4967403;28;102808;-51
2021/09/04 01:47:32;;;;;;;5.38;3.78;;;;;;;21.38;68.64;101137.34;4982493;28;102536;-51
2021/09/04 01:49:59;;;;;;;6.40;3.95;;;;;;;21.38;68.80;101133.78;4980240;28;102659;-51
2021/09/04 01:52:26;;;;;;;5.18;3.58;;;;;;;21.38;68.68;101131.00;4966721;28;102484;-52
2021/09/04 01:54:52;;;;;;;7.13;3.90;;;;;;;21.39;68.84;101138.19;4968899;28;104025;-52
2021/09/04 01:57:20;;;;;;;5.60;4.03;;;;;;;21.38;68.90;101133.78;4970101;28;102101;-52
2021/09/04 01:59:48;;;;;;;5.07;3.38;;;;;;;21.38;68.77;101131.81;4972236;28;102674;-52
2021/09/04 02:02:14;;;;;;;5.45;3.90;;;;;;;21.38;68.71;101137.34;4973801;28;102473;-52
2021/09/04 02:04:41;;;;;;;4.72;3.75;;;;;;;21.38;68.64;101128.22;4962099;28;103545;-52
2021/09/04 02:07:08;;;;;;;6.13;4.03;;;;;;;21.38;68.78;101137.34;4964269;28;102526;-52
2021/09/04 02:09:35;;;;;;;4.72;3.70;;;;;;;21.38;68.68;101126.28;4969455;28;102474;-52
2021/09/04 02:12:02;;;;;;;4.65;3.47;;;;;;;21.37;68.61;101123.84;4967748;28;102632;-52
2021/09/04 02:14:29;;;;;;;8.32;4.40;;;;;;;21.37;68.71;101121.09;4968382;28;103730;-52
2021/09/04 02:16:57;;;;;;;6.00;4.00;;;;;;;21.37;68.70;101118.31;4968194;28;102234;-52
2021/09/04 02:19:24;;;;;;;4.97;3.47;;;;;;;21.37;68.79;101112.78;4978833;28;102442;-52
2021/09/04 02:21:50;;;;;;;4.13;3.63;;;;;;;21.37;68.61;101107.25;4969958;28;102245;-52
2021/09/04 02:24:17;;;;;;;4.95;3.70;;;;;;;21.37;68.82;101112.78;4964106;28;103884;-52
2021/09/04 02:26:47;;;;;;;4.72;3.67;;;;;;;21.37;68.65;101118.31;4980117;28;102382;-52
2021/09/04 02:29:14;;;;;;;4.10;3.20;;;;;;;21.37;68.72;101118.31;4965755;28;102115;-52
2021/09/04 02:31:41;;;;;;;5.55;3.72;;;;;;;21.36;68.64;101106.44;4970045;28;102396;-52
2021/09/04 02:34:09;;;;;;;5.53;3.63;;;;;;;21.35;68.73;101116.69;4965623;28;103873;-52
2021/09/04 02:36:54;;;;;;;5.63;3.70;;;;;;;21.36;68.85;101123.03;4965681;28;102250;-52
2021/09/04 02:39:21;;;;;;;4.32;3.78;;;;;;;21.37;68.81;101115.53;4968671;28;102503;-52
2021/09/04 02:41:47;;;;;;;5.32;3.95;;;;;;;21.37;68.72;101123.84;4967859;28;102802;-52
2021/09/04 02:44:14;;;;;;;6.07;4.10;;;;;;;21.35;68.83;101122.22;4967864;28;103776;-52
2021/09/04 02:46:41;;;;;;;4.28;3.60;;;;;;;21.35;68.94;101121.44;4966661;28;102356;-52
2021/09/04 02:49:09;;;;;;;4.90;3.35;;;;;;;21.37;68.81;101123.84;4966829;28;102187;-52
2021/09/04 02:51:37;;;;;;;4.75;3.75;;;;;;;21.35;68.71;101116.69;4968184;28;102745;-52
2021/09/04 02:54:04;;;;;;;5.22;3.80;;;;;;;21.35;68.95;101121.44;4966388;28;104172;-52
2021/09/04 02:56:31;;;;;;;5.60;3.55;;;;;;;21.35;68.70;101110.34;4965465;28;102567;-52
2021/09/04 02:58:59;;;;;;;5.05;3.78;;;;;;;21.34;68.78;101120.59;4981040;28;102286;-52
2021/09/04 03:01:25;;;;;;;5.25;3.72;;;;;;;21.35;68.84;101121.44;4967696;28;102449;-52
2021/09/04 03:03:58;;;;;;;6.00;4.30;;;;;;;21.35;68.70;101124.19;4967771;28;103756;-52
2021/09/04 03:06:26;;;;;;;4.68;3.33;;;;;;;21.33;68.74;101124.50;4964102;28;104543;-52
2021/09/04 03:08:54;;;;;;;4.55;3.72;;;;;;;21.34;68.72;101126.13;4978774;28;102527;-52
2021/09/04 03:11:24;;;;;;;4.68;3.60;;;;;;;21.32;68.79;101117.34;4962097;28;102719;-52
2021/09/04 03:13:51;;;;;;;5.07;3.80;;;;;;;21.33;68.78;101124.50;4967821;28;103078;-52
2021/09/04 03:16:18;;;;;;;6.60;3.85;;;;;;;21.34;68.87;101125.31;4965694;28;102399;-51
2021/09/04 03:18:45;;;;;;;4.88;3.70;;;;;;;21.32;68.86;101131.16;4967909;28;102203;-52
2021/09/04 03:21:12;;;;;;;6.07;4.13;;;;;;;21.34;68.86;101136.38;4966274;28;102669;-52
2021/09/04 03:23:40;;;;;;;5.18;3.65;;;;;;;21.33;68.93;101135.59;4967589;28;103888;-52
2021/09/04 03:26:06;;;;;;;4.65;3.42;;;;;;;21.32;68.92;101133.94;4978923;28;102263;-52
2021/09/04 03:28:33;;;;;;;6.10;3.40;;;;;;;21.32;68.91;101125.63;4967411;28;102451;-52
2021/09/04 03:31:00;;;;;;;4.38;3.38;;;;;;;21.31;68.89;101118.47;4968926;28;102395;-52
2021/09/04 03:33:27;;;;;;;4.57;3.55;;;;;;;21.32;68.96;101124.81;4971600;28;104001;-52
2021/09/04 03:35:54;;;;;;;3.83;3.42;;;;;;;21.32;68.98;101128.41;4971220;28;102156;-52
2021/09/04 03:38:20;;;;;;;5.03;3.67;;;;;;;21.32;69.01;101131.16;4967592;28;102363;-52
2021/09/04 03:40:48;;;;;;;4.78;3.17;;;;;;;21.31;68.90;101135.09;4971851;28;102533;-52
2021/09/04 03:43:15;;;;;;;5.17;3.70;;;;;;;21.32;68.95;101128.41;4968249;28;104027;-52
2021/09/04 03:45:42;;;;;;;4.63;3.70;;;;;;;21.31;69.01;101132.31;4981375;28;102511;-52
2021/09/04 03:48:09;;;;;;;5.43;3.58;;;;;;;21.31;68.99;101124.03;4983376;28;102069;-52
2021/09/04 03:50:38;;;;;;;5.03;3.67;;;;;;;21.32;69.08;101133.13;4968701;28;102452;-52
2021/09/04 03:53:05;;;;;;;4.63;2.95;;;;;;;21.31;69.14;101131.50;4966734;28;103142;-52
2021/09/04 03:55:31;;;;;;;3.65;3.10;;;;;;;21.31;69.12;101137.03;4970336;28;102399;-52
2021/09/04 03:57:59;;;;;;;4.28;3.42;;;;;;;21.32;69.17;101147.78;4963051;28;102185;-52
2021/09/04 04:00:26;;;;;;;5.33;3.63;;;;;;;21.31;69.05;101139.78;4969165;28;102498;-52
2021/09/04 04:02:52;;;;;;;4.85;3.15;;;;;;;21.31;68.92;101139.78;4968118;28;103911;-52
2021/09/04 04:05:19;;;;;;;3.90;3.47;;;;;;;21.31;69.09;101142.56;4978857;28;102330;-52
2021/09/04 04:07:46;;;;;;;3.70;3.28;;;;;;;21.30;68.91;101141.75;4980519;28;102623;-51
2021/09/04 04:10:13;;;;;;;4.22;3.55;;;;;;;21.31;68.88;101156.41;4963711;28;104433;-52
2021/09/04 04:12:41;;;;;;;3.72;3.10;;;;;;;21.30;69.03;101155.59;4969450;28;103875;-52
2021/09/04 04:15:10;;;;;;;4.38;3.08;;;;;;;21.30;69.20;101150.06;4969915;28;101953;-52
2021/09/04 04:17:36;;;;;;;5.07;3.83;;;;;;;21.30;69.12;101138.97;4965516;28;103245;-52
2021/09/04 04:20:04;;;;;;;5.03;3.28;;;;;;;21.30;69.05;101150.06;4981140;28;102505;-52
2021/09/04 04:22:31;;;;;;;4.88;3.58;;;;;;;21.29;69.10;101145.69;4970484;28;103391;-52
2021/09/04 04:24:58;;;;;;;3.97;3.17;;;;;;;21.29;69.04;101145.69;4972184;28;102719;-52
2021/09/04 04:27:25;;;;;;;4.43;3.10;;;;;;;21.30;69.09;101155.59;4960467;28;102656;-52
2021/09/04 04:29:52;;;;;;;5.18;3.20;;;;;;;21.29;69.10;101151.22;4961397;28;102521;-52
2021/09/04 04:32:27;;;;;;;3.83;2.90;;;;;;;21.29;69.14;101145.69;4968412;28;103955;-52
2021/09/04 04:34:54;;;;;;;4.47;3.47;;;;;;;21.29;69.13;101140.13;4968089;28;102091;-52
2021/09/04 04:37:22;;;;;;;4.53;3.30;;;;;;;21.29;69.19;101145.69;4969533;28;102597;-52
2021/09/04 04:39:49;;;;;;;3.53;3.10;;;;;;;21.30;69.14;101141.75;4965494;28;102195;-52
2021/09/04 04:42:16;;;;;;;4.28;3.20;;;;;;;21.29;69.09;101145.69;4973633;28;104076;-52
2021/09/04 04:44:44;;;;;;;4.10;3.05;;;;;;;21.30;69.12;101144.53;4979336;28;102089;-52
2021/09/04 04:47:10;;;;;;;4.32;3.20;;;;;;;21.29;69.26;101140.13;4967792;28;102658;-52
2021/09/04 04:49:41;;;;;;;5.43;3.53;;;;;;;21.29;69.05;101144.88;4969155;28;102380;-52
2021/09/04 04:52:08;;;;;;;4.10;3.35;;;;;;;21.29;69.19;101145.69;4969342;28;103952;-52
2021/09/04 04:54:34;;;;;;;4.47;3.22;;;;;;;21.29;69.35;101148.44;4970162;28;102468;-52
2021/09/04 04:57:04;;;;;;;5.20;3.30;;;;;;;21.29;69.15;101145.69;4969036;28;102226;-52
2021/09/04 04:59:30;;;;;;;3.95;3.45;;;;;;;21.30;69.23;101149.25;4967155;28;102585;-52
2021/09/04 05:01:57;;;;;;;4.93;3.40;;;;;;;21.29;69.14;101153.97;4963731;28;103765;-52
2021/09/04 05:04:24;;;;;;;6.45;3.75;;;;;;;21.29;69.20;101156.75;4969798;28;102560;-52
2021/09/04 05:06:52;;;;;;;5.05;3.60;;;;;;;21.29;69.15;101151.22;4966764;28;102779;-52
2021/09/04 05:09:19;;;;;;;4.80;3.45;;;;;;;21.28;69.27;101155.13;4961815;28;102468;-52
2021/09/04 05:11:47;;;;;;;3.85;3.33;;;;;;;21.29;69.30;101153.97;4961834;28;106004;-52
2021/09/04 05:14:14;;;;;;;4.53;3.45;;;;;;;21.30;69.42;101158.38;4973213;28;102430;-52
2021/09/04 05:16:41;;;;;;;5.05;3.65;;;;;;;21.30;69.13;101152.03;4971652;28;102527;-51
2021/09/04 05:19:08;;;;;;;4.65;3.20;;;;;;;21.29;69.19;101148.44;4974713;28;102212;-52
2021/09/04 05:21:34;;;;;;;4.15;3.25;;;;;;;21.31;69.44;101159.16;4973422;28;104322;-52
2021/09/04 05:24:03;;;;;;;3.35;3.05;;;;;;;21.31;69.34;101153.63;4972780;28;102525;-52
2021/09/04 05:26:30;;;;;;;5.93;3.50;;;;;;;21.30;69.34;101152.81;4967686;28;102236;-52
2021/09/04 05:28:57;;;;;;;3.58;3.28;;;;;;;21.31;69.33;101143.41;4971836;28;102649;-52
2021/09/04 05:31:25;;;;;;;4.53;3.40;;;;;;;21.31;69.29;101148.09;4967935;28;104263;-52
2021/09/04 05:33:52;;;;;;;4.75;3.38;;;;;;;21.32;69.39;101144.22;4966782;28;102679;-52
2021/09/04 05:36:18;;;;;;;5.85;3.30;;;;;;;21.32;69.29;101145.00;4966868;28;102514;-52
2021/09/04 05:38:45;;;;;;;5.28;3.20;;;;;;;21.32;69.21;101150.56;4960420;28;102829;-52
2021/09/04 05:41:13;;;;;;;3.90;3.15;;;;;;;21.33;69.28;101140.28;4967033;28;103976;-51
2021/09/04 05:43:40;;;;;;;3.40;3.10;;;;;;;21.33;69.18;101135.59;4973408;28;102528;-52
2021/09/04 05:46:07;;;;;;;4.32;3.15;;;;;;;21.33;69.17;101138.34;4968040;28;102660;-52
2021/09/04 05:48:34;;;;;;;4.15;3.53;;;;;;;21.34;69.22;101131.66;4959191;28;102429;-57
2021/09/04 05:51:00;;;;;;;4.05;3.03;;;;;;;21.35;69.18;101127.78;4975582;28;104047;-52
2021/09/04 05:53:27;;;;;;;4.50;3.60;;;;;;;21.37;69.34;101129.38;4963541;28;102774;-52
2021/09/04 05:55:54;;;;;;;5.80;3.72;;;;;;;21.37;69.33;101124.66;4966211;28;102842;-52
2021/09/04 05:58:37;;;;;;;3.90;2.75;;;;;;;21.37;69.19;101121.09;4961572;28;102204;-51
2021/09/04 06:01:24;;;;;;;3.80;3.17;;;;;;;21.38;69.28;101125.47;4957429;28;102701;-52
2021/09/04 06:03:51;;;;;;;5.85;3.08;;;;;;;21.39;69.23;101121.56;4955715;28;102517;-54
2021/09/04 06:06:20;;;;;;;3.85;3.28;;;;;;;21.40;69.28;101123.19;4965147;28;102173;-51
2021/09/04 06:08:47;;;;;;;5.82;3.10;;;;;;;21.40;69.18;101124.00;4971239;28;102551;-51
2021/09/04 06:11:13;;;;;;;3.97;3.13;;;;;;;21.40;69.49;101117.66;4970211;28;102758;-52
2021/09/04 06:13:41;;;;;;;3.60;2.90;;;;;;;21.40;69.15;101121.22;4966331;28;102560;-52
2021/09/04 06:16:07;;;;;;;3.40;3.08;;;;;;;21.41;69.29;101113.72;4967929;28;102363;-52
2021/09/04 06:18:36;;;;;;;4.13;3.20;;;;;;;21.42;68.79;101116.19;4965335;28;103343;-52
2021/09/04 06:21:06;;;;;;;4.65;2.60;;;;;;;21.43;69.02;101116.97;4968213;28;103883;-52
2021/09/04 06:23:32;;;;;;;6.65;3.17;;;;;;;21.43;68.88;101100.38;4968571;28;102502;-52
2021/09/04 06:25:59;;;;;;;3.88;2.97;;;;;;;21.44;69.12;101119.41;4964280;28;103450;-52
2021/09/04 06:28:25;;;;;;;3.20;2.90;;;;;;;21.45;69.21;101117.44;4966342;28;102599;-51
2021/09/04 06:30:53;;;;;;;3.40;2.80;;;;;;;21.45;69.20;101115.47;4969341;28;102748;-52
2021/09/04 06:33:20;;;;;;;3.90;2.72;;;;;;;21.47;69.17;101112.41;4964365;28;102221;-52
2021/09/04 06:35:46;;;;;;;4.18;2.85;;;;;;;21.47;68.98;101112.41;4967968;28;102521;-51
2021/09/04 06:38:13;;;;;;;3.70;3.30;;;;;;;21.48;69.23;101114.00;4963808;28;102346;-52
2021/09/04 06:40:40;;;;;;;3.30;2.60;;;;;;;21.49;69.22;101110.09;4968330;28;103779;-52
2021/09/04 06:43:06;;;;;;;;;;;;;;;21.50;69.18;101106.19;4985908;28;102073;-52
2021/09/04 06:45:33;;;;;;;3.15;2.72;;;;;;;21.50;69.07;101111.72;4955071;28;102726;-52
2021/09/04 06:48:01;;;;;;;3.15;2.85;;;;;;;21.51;69.08;101113.34;4973762;28;102554;-52
2021/09/04 06:50:28;;;;;;;4.80;2.90;;;;;;;21.52;68.96;101114.94;4965639;28;104061;-52
2021/09/04 06:52:57;;;;;;;3.25;2.83;;;;;;;21.53;69.00;101116.56;4968705;28;102297;-52
2021/09/04 06:55:24;;;;;;;3.92;3.00;;;;;;;21.54;68.98;101115.44;4965125;28;102342;-52
2021/09/04 06:57:50;;;;;;;3.08;2.67;;;;;;;21.55;68.99;101114.28;4964391;28;102370;-52
2021/09/04 07:00:18;;;;;;;3.03;2.53;;;;;;;21.55;68.88;101108.75;4966986;28;103891;-51
2021/09/04 07:02:44;;;;;;;3.00;2.40;;;;;;;21.56;68.52;101110.34;4962462;28;102600;-52
2021/09/04 07:05:12;;;;;;;3.22;2.88;;;;;;;21.57;68.98;101112.00;4958219;28;102532;-52
2021/09/04 07:07:42;;;;;;;2.47;2.13;;;;;;;21.59;68.94;101118.00;4954790;28;104984;-52
2021/09/04 07:10:09;;;;;;;3.80;2.40;;;;;;;21.58;69.02;101114.44;4960788;28;104138;-52
2021/09/04 07:12:36;;;;;;;2.60;2.22;;;;;;;21.61;68.77;101112.16;4961382;28;102044;-52
2021/09/04 07:15:03;;;;;;;4.00;2.30;;;;;;;21.61;68.75;101107.41;4969258;28;102413;-52
2021/09/04 07:17:30;;;;;;;2.70;2.15;;;;;;;21.62;68.95;101109.03;4964084;28;102412;-52
2021/09/04 07:20:01;;;;;;;2.67;2.47;;;;;;;21.64;68.84;101111.44;4961102;28;105495;-52
2021/09/04 07:22:29;;;;;;;2.53;2.30;;;;;;;21.63;68.91;101105.09;4964362;28;102692;-52
2021/09/04 07:24:56;;;;;;;2.55;2.28;;;;;;;21.64;68.74;101123.34;4962964;28;102593;-52
2021/09/04 07:27:22;;;;;;;2.80;2.47;;;;;;;21.65;68.81;101113.91;4965177;28;102574;-53
2021/09/04 07:29:49;;;;;;;2.88;2.33;;;;;;;21.67;68.71;101108.00;4963397;28;103940;-52
2021/09/04 07:32:16;;;;;;;2.40;2.20;;;;;;;21.69;68.63;101109.31;4962464;28;102486;-52
2021/09/04 07:34:43;;;;;;;13.60;2.65;;;;;;;21.69;68.76;101109.31;4958574;28;102568;-52
2021/09/04 07:37:09;;;;;;;3.78;2.58;;;;;;;21.68;68.53;101102.16;4962852;28;103186;-52
2021/09/04 07:39:37;;;;;;;3.05;2.70;;;;;;;21.70;68.71;101099.84;4953812;28;103929;-52
2021/09/04 07:42:04;;;;;;;2.80;2.25;;;;;;;21.70;68.80;101105.38;4963098;28;102178;-52
2021/09/04 07:44:30;;;;;;;2.60;2.30;;;;;;;21.72;68.63;101108.63;4961152;28;102106;-53
2021/09/04 07:46:57;;;;;;;3.05;2.28;;;;;;;21.73;68.84;101109.44;4959612;28;102868;-52
2021/09/04 07:49:24;;;;;;;2.83;2.38;;;;;;;21.74;68.73;101111.84;4962342;28;103938;-52
2021/09/04 07:51:51;;;;;;;3.33;2.30;;;;;;;21.73;68.73;101090.84;4954212;28;102084;-53
2021/09/04 07:54:17;;;;;;;2.42;2.22;;;;;;;21.76;68.65;101103.22;4961301;28;106329;-52
2021/09/04 07:56:45;;;;;;;2.80;2.47;;;;;;;21.76;68.73;101092.16;4959743;28;103548;-52
2021/09/04 07:59:12;;;;;;;2.92;2.63;;;;;;;21.77;68.56;101083.47;4962819;28;103901;-52
2021/09/04 08:01:40;;;;;;;2.40;2.20;;;;;;;21.78;68.63;101090.66;4964327;28;102563;-52
2021/09/04 08:04:06;;;;;;;2.17;1.98;;;;;;;21.79;68.73;101086.75;4960231;28;102515;-52
2021/09/04 08:06:33;;;;;;;4.28;3.00;;;;;;;21.79;68.58;101085.94;4962601;28;102863;-52
2021/09/04 08:09:00;;;;;;;3.03;2.67;;;;;;;21.81;68.67;101084.41;4964782;28;103961;-52
2021/09/04 08:11:27;;;;;;;2.97;2.55;;;;;;;21.81;68.48;101089.97;4966982;28;102269;-52
2021/09/04 08:13:57;;;;;;;2.88;2.42;;;;;;;21.82;68.72;101088.84;4967981;28;102279;-52
2021/09/04 08:16:24;;;;;;;2.95;2.38;;;;;;;21.83;68.67;101096.00;4957769;28;102223;-52
2021/09/04 08:18:50;;;;;;;3.75;2.65;;;;;;;21.84;68.58;101086.53;4955558;28;102759;-52
2021/09/04 08:21:17;;;;;;;2.58;2.38;;;;;;;21.85;68.67;101084.56;4965540;28;102682;-52
2021/09/04 08:23:43;;;;;;;3.38;2.40;;;;;;;21.86;68.66;101079.84;4975005;28;102164;-52
2021/09/04 08:26:10;;;;;;;2.72;2.40;;;;;;;21.86;68.84;101074.31;4969311;28;102380;-51
2021/09/04 08:28:36;;;;;;;2.95;2.45;;;;;;;21.87;68.61;101075.91;4967893;28;103948;-52
2021/09/04 08:31:04;;;;;;;3.13;2.80;;;;;;;21.87;68.72;101075.91;4967651;28;102859;-52
2021/09/04 08:33:31;;;;;;;2.60;2.40;;;;;;;21.88;68.58;101077.53;4962739;28;103983;-52
2021/09/04 08:35:57;;;;;;;3.05;2.58;;;;;;;21.89;68.68;101074.44;4976891;28;103337;-52
2021/09/04 08:38:24;;;;;;;3.28;2.65;;;;;;;21.90;68.62;101083.56;4958547;28;103269;-52
2021/09/04 08:40:51;;;;;;;2.60;2.40;;;;;;;21.90;68.61;101076.06;4952303;28;103134;-52
2021/09/04 08:43:19;;;;;;;2.88;2.58;;;;;;;21.91;68.51;101076.88;4968399;28;102348;-52
2021/09/04 08:45:46;;;;;;;3.72;2.40;;;;;;;21.92;68.54;101072.94;4955280;28;102786;-52
2021/09/04 08:48:15;;;;;;;3.17;2.50;;;;;;;21.92;68.66;101070.16;4948675;28;109181;-52
2021/09/04 08:50:42;;;;;;;;;;;;;;;21.94;68.45;101081.72;4949510;28;103395;-53
2021/09/04 08:53:08;;;;;;;3.10;2.22;;;;;;;21.94;68.54;101081.72;4951865;28;102898;-52
2021/09/04 08:55:35;;;;;;;3.10;2.60;;;;;;;21.94;68.71;101071.44;4970563;28;102553;-51
2021/09/04 08:58:02;;;;;;;2.65;2.45;;;;;;;21.95;68.58;101073.06;4964618;28;103756;-51
2021/09/04 09:00:30;;;;;;;3.70;2.85;;;;;;;21.95;68.49;101084.16;4949083;28;102657;-52
2021/09/04 09:02:57;;;;;;;4.23;3.10;;;;;;;21.96;68.60;101082.19;4948720;28;102898;-52
2021/09/04 09:05:28;;;;;;;4.22;2.88;;;;;;;21.95;68.61;101075.84;4971122;28;102398;-52
2021/09/04 09:07:55;;;;;;;3.30;3.00;;;;;;;21.95;68.55;101073.06;4962669;28;103900;-52
2021/09/04 09:10:32;;;;;;;2.67;2.43;;;;;;;21.95;68.68;101072.25;4950521;28;103603;-52
2021/09/04 09:13:01;;;;;;;3.45;2.80;;;;;;;21.95;68.62;101072.25;4975450;28;102776;-52
2021/09/04 09:15:29;;;;;;;2.92;2.55;;;;;;;21.95;68.68;101067.53;4968801;28;102869;-52
2021/09/04 09:18:00;;;;;;;4.83;2.70;;;;;;;21.95;68.58;101064.75;4967748;28;102744;-53
2021/09/04 09:20:30;;;;;;;2.58;2.35;;;;;;;21.96;68.69;101068.31;4962913;28;102782;-52
2021/09/04 09:23:04;;;;;;;3.05;2.67;;;;;;;21.96;68.47;101073.88;4966508;28;102500;-52
2021/09/04 09:25:32;;;;;;;2.65;2.45;;;;;;;21.96;68.66;101076.63;4981029;28;102759;-52
2021/09/04 09:28:04;;;;;;;2.72;2.53;;;;;;;21.96;68.54;101068.31;4961085;28;103352;-52
2021/09/04 09:30:36;;;;;;;3.05;2.60;;;;;;;21.96;68.59;101071.09;4968080;28;102682;-52
2021/09/04 09:33:04;;;;;;;3.00;2.70;;;;;;;21.94;68.46;101077.00;4966668;28;102261;-52
2021/09/04 09:35:34;;;;;;;6.63;3.03;;;;;;;21.96;68.67;101079.41;4964822;28;103248;-52
2021/09/04 09:38:02;;;;;;;3.10;2.80;;;;;;;21.94;68.51;101076.19;4959405;28;103905;-52
2021/09/04 09:40:29;;;;;;;3.17;2.22;;;;;;;21.95;68.54;101067.53;4966035;28;102454;-52
2021/09/04 09:42:56;;;;;;;3.88;2.60;;;;;;;21.95;68.56;101077.78;4964508;28;102122;-52
2021/09/04 09:45:39;;;;;;;3.03;2.00;;;;;;;21.95;68.52;101083.34;4961812;28;102644;-52
2021/09/04 09:48:05;;;;;;;3.55;2.50;;;;;;;21.94;68.57;101078.97;4958901;28;105555;-52
2021/09/04 09:50:35;;;;;;;4.13;2.22;;;;;;;21.95;68.45;101072.25;4965590;28;102462;-52
2021/09/04 09:53:03;;;;;;;3.97;2.80;;;;;;;21.95;68.51;101061.16;4956570;28;102667;-52
2021/09/04 09:55:30;;;;;;;2.60;2.40;;;;;;;21.93;68.57;101061.53;4969541;28;102217;-52
2021/09/04 09:57:58;;;;;;;3.15;2.58;;;;;;;21.94;68.62;101070.66;4968309;28;102747;-52
2021/09/04 10:00:26;;;;;;;2.60;2.33;;;;;;;21.94;68.61;101065.09;4978559;28;102658;-52
2021/09/04 10:02:56;;;;;;;2.50;2.30;;;;;;;21.93;68.68;101058.75;4966887;28;103243;-52
2021/09/04 10:05:26;;;;;;;3.53;2.58;;;;;;;21.93;68.26;101057.94;4968612;28;102735;-52
2021/09/04 10:07:57;;;;;;;4.03;2.45;;;;;;;21.93;68.58;101047.66;4966675;28;104066;-52
2021/09/04 10:10:31;;;;;;;3.05;2.67;;;;;;;21.93;68.65;101057.94;4959845;28;101995;-53
2021/09/04 10:12:58;;;;;;;3.10;2.80;;;;;;;21.93;68.48;101063.50;4979772;28;102173;-52
2021/09/04 10:15:27;;;;;;;3.25;2.70;;;;;;;21.92;68.56;101062.66;4972722;28;102829;-52
2021/09/04 10:17:59;;;;;;;3.65;2.95;;;;;;;21.92;68.50;101064.63;4969428;28;103648;-52
2021/09/04 10:20:29;;;;;;;3.25;2.95;;;;;;;21.92;68.64;101070.97;4965777;28;102429;-52
2021/09/04 10:23:19;;;;;;;4.85;2.90;;;;;;;21.91;68.52;101071.31;4967359;28;104232;-52
2021/09/04 10:25:45;;;;;;;2.97;2.67;;;;;;;21.90;68.40;101064.97;4963404;28;102446;-52
2021/09/04 10:28:12;;;;;;;3.17;2.88;;;;;;;21.91;68.65;101071.31;4968529;28;104229;-52
2021/09/04 10:30:41;;;;;;;3.30;3.00;;;;;;;21.90;68.27;101066.94;4962567;28;102153;-52
2021/09/04 10:33:09;;;;;;;3.55;2.80;;;;;;;21.90;68.71;101058.63;4966606;28;105308;-52
2021/09/04 10:35:44;;;;;;;4.50;3.58;;;;;;;21.89;68.71;101054.22;4973375;28;102364;-52
2021/09/04 10:38:27;;;;;;;3.72;3.10;;;;;;;21.88;68.63;101061.72;4975074;28;103933;-52
2021/09/04 10:41:14;;;;;;;3.45;3.00;;;;;;;21.89;68.51;101059.75;4970521;28;102633;-52
2021/09/04 10:43:43;;;;;;;3.15;2.80;;;;;;;21.89;68.48;101056.97;4964616;28;102578;-52
2021/09/04 10:46:11;;;;;;;4.33;3.30;;;;;;;21.89;68.58;101062.53;4966463;28;102174;-53
2021/09/04 10:48:38;;;;;;;;;;;;;;;21.88;68.42;101060.91;4952373;28;104046;-52
2021/09/04 10:51:09;;;;;;;3.10;2.80;;;;;;;21.88;68.60;101061.72;4963506;28;102609;-52
2021/09/04 10:53:45;;;;;;;13.40;5.00;;;;;;;21.87;67.88;101060.09;4953699;28;104389;-51
2021/09/04 10:56:20;;;;;;;9.48;5.50;;;;;;;21.81;64.87;101048.41;4960421;28;103080;-50
2021/09/04 10:58:50;;;;;;;12.05;5.63;;;;;;;21.76;62.90;101058.91;4963477;28;108897;-52
2021/09/04 11:01:18;;;;;;;7.97;5.50;;;;;;;21.72;62.54;101053.22;4967576;28;102686;-51
2021/09/04 11:03:52;;;;;;;13.18;5.72;;;;;;;21.71;62.20;101046.06;4966527;28;102518;-51
2021/09/04 11:06:21;;;;;;;13.43;5.88;;;;;;;21.69;61.97;101048.34;4950326;28;102302;-52
2021/09/04 11:08:51;;;;;;;12.00;6.03;;;;;;;21.67;61.30;101047.88;4965589;28;104228;-52
2021/09/04 11:11:20;;;;;;;13.85;6.35;;;;;;;21.65;60.67;101047.41;4971554;28;102203;-52
2021/09/04 11:13:58;;;;;;;10.00;5.43;;;;;;;21.63;60.61;101048.91;4980714;28;102596;-52
2021/09/04 11:16:36;;;;;;;13.40;6.50;;;;;;;21.60;59.98;101044.84;4964578;28;102447;-52
2021/09/04 11:19:06;;;;;;;13.00;6.40;;;;;;;21.57;60.04;101045.53;4962034;28;103977;-52
2021/09/04 11:21:44;;;;;;;10.95;6.00;;;;;;;21.55;59.33;101042.28;4966634;28;102693;-52